Alkabo, North Dakota
Current Conditions -  °F | °C
As of 12:52 PM on Tuesday 27 Jan 2015 (Local Time) from KISN Reporting Station
Clear Clear  
Wind Chill: 44°   Ceiling: Unl
Heat Index: 46°   Visibility: 10mi
Dew Point: 34°   Wind: 5mph
Humidity: 63%   Direction: 170°S
Pressure: 29.83"   Gusts: NA
Location:  48.5901°N, 103.922°W
Report Text: KISN 271852Z AUTO 17004KT 10SM CLR 08/01 A2983 RMK AO2 SLP119 T00780011
Loading
Personal Weather Stations






























Interactive Weather Map New forecast layout! Learn more

10-Day Weather Forecast

Advertisements
Track Severe Weather on mobile